Merry Christmas and Happy New Year!

 

Sretan Božić i Nova godina!

 

METAR

METAR LDZA 051700Z 05017KT 020V100 9999 -RA FEW013 OVC040 06/03 Q1019 TEMPO SHRA BKN035 FEW040TCU =
METAR LDSP 051700Z 21003KT CAVOK 11/08 Q1017 NOSIG=
METAR LDDU 051700Z 10011KT 9999 FEW023 SCT032 11/07 Q1018 BECMG 08008KT =
METAR LDZD 051700Z 34005KT 9999 FEW030 11/06 Q1017 NOSIG =
METAR LDPL 051700Z 08004KT CAVOK 08/06 Q1017 NOSIG=
METAR LDOS 051700Z 36006KT 9999 -RA BKN040 09/07 Q1018=
METAR LDRI 051700Z 36002KT 9999 SCT037 11/08 Q1017=

TAF

TAF LDZA 051125Z 0512/0612 26005KT 9999 FEW045
                 TX16/0513Z TN00/0606Z
           BECMG 0513/0515 03015KT
    PROB40 TEMPO 0513/0518 03018G30KT SHRA SCT045TCU
    PROB30 TEMPO 0513/0518 TSRA SCT020 FEW045CB
           BECMG 0520/0522 03008KT
           TEMPO 0600/0612 VRB02KT=         
TAF LDSP 051125Z 0512/0612 10007KT 9999 SCT040
                 TX14/0512Z TN08/0605Z
           BECMG 0522/0600 04012KT
    PROB40 TEMPO 0601/0606 04015G28KT
           BECMG 0608/0610 09008KT=         
TAF LDDU 051125Z 0512/0612 13015KT 9999 SCT020
                 TX15/0611Z TN08/0600Z
           BECMG 0516/0518 08008KT
           BECMG 0601/0603 02018KT
    PROB40 TEMPO 0603/0608 02020G30KT
           BECMG 0608/0610 22008KT=         
TAF LDZD 051125Z 0512/0612 22008KT 9999 SCT025
                 TX14/0512Z TN04/0605Z
           BECMG 0515/0517 30005KT
           BECMG 0521/0523 06015KT
    PROB40 TEMPO 0523/0609 06018G28KT=         
TAF LDPL 051125Z 0512/0612 24005KT 9999 SCT030
                 TX13/0512Z TN05/0604Z
           BECMG 0519/0521 06012KT
           BECMG 0521/0523 06020G35KT
    PROB30 TEMPO 0521/0600 SHRA SCT035TCU
           BECMG 0607/0609 06015G25KT
           BECMG 0610/0612 06012KT=         
TAF LDOS 051125Z 0512/0612 27012KT 9999 SCT045
                 TX15/0512Z TN03/0604Z
           BECMG 0513/0515 34016KT
    PROB40 TEMPO 0514/0520 RA
    PROB30 TEMPO 0514/0519 34018G28KT SHRA FEW040TCU
           BECMG 0601/0603 35008KT=         
TAF LDRI 051125Z 0512/0612 VRB02KT 9999 SCT010 BKN030
                 TX13/0512Z TN05/0604Z
           BECMG 0518/0520 06015G25KT
           BECMG 0521/0523 06025G40KT
           BECMG 0607/0609 06015G25KT
           TEMPO 0609/0612 06010KT=         
TAF LDSB NIL=         
TAF LDLO NIL=

SIGMET

AIRMET

If you cannot log in with your user account, please contact stjepko.jancijev@crocontrol.hr.
Specifically, the website deactivates user accounts that have not been used for more than 365 days, so they must be reactivated.
 

         

      Politika MET podataka      

 

Ukoliko se svojim korisničkim računom ne možete logirati na web stranicu, molim vas da se obratite na stjepko.jancijev@crocontrol.hr.

Naime, web stranica deaktivira korisničke račune koji nisu korišteni više od 365 dana te ih je potrebno ponovno aktivirati.